Time;durP1;ratioP1;P1;durP2;ratioP2;P2;SDS_P1;SDS_P2;PMS_P1;PMS_P2;Temp;Humidity;BMP_temperature;BMP_pressure;BME280_temperature;BME280_humidity;BME280_pressure;Samples;Min_cycle;Max_cycle;Signal;HPM_P1;HPM_P2
2023/06/05 00:00:21;;;;;;;3.72;2.75;;;;;;;12.75;29.40;95893.38;4923721;29;20306;-71
2023/06/05 00:02:47;;;;;;;2.70;1.98;;;;;;;12.79;28.93;95895.47;4923077;29;20055;-71
2023/06/05 00:05:13;;;;;;;4.15;2.00;;;;;;;12.73;28.78;95904.25;4923232;29;20027;-71
2023/06/05 00:07:38;;;;;;;4.22;2.13;;;;;;;12.75;28.93;95893.38;4925751;29;20032;-71
2023/06/05 00:10:07;;;;;;;3.70;2.60;;;;;;;12.67;29.15;95899.63;4923663;29;20024;-71
2023/06/05 00:12:32;;;;;;;2.22;2.03;;;;;;;12.69;29.02;95899.47;4923038;29;20087;-71
2023/06/05 00:14:58;;;;;;;5.35;2.65;;;;;;;12.69;29.03;95896.78;4924043;29;20596;-71
2023/06/05 00:17:24;;;;;;;2.58;1.70;;;;;;;12.69;28.95;95891.44;4922859;29;20064;-70
2023/06/05 00:19:49;;;;;;;2.90;1.95;;;;;;;12.64;28.93;95891.97;4923401;29;20102;-70
2023/06/05 00:22:15;;;;;;;2.60;1.90;;;;;;;12.63;28.78;95893.84;4924796;29;20597;-70
2023/06/05 00:24:40;;;;;;;2.67;1.75;;;;;;;12.67;28.45;95891.63;4923582;29;20087;-70
2023/06/05 00:27:06;;;;;;;2.80;2.10;;;;;;;12.62;28.56;95894.03;4924367;29;20040;-70
2023/06/05 00:29:31;;;;;;;3.20;2.08;;;;;;;12.59;28.53;95892.56;4924321;29;20086;-70
2023/06/05 00:31:57;;;;;;;6.68;3.20;;;;;;;12.51;29.24;95892.66;4923593;29;20166;-70
2023/06/05 00:34:22;;;;;;;3.28;2.25;;;;;;;12.53;28.77;95890.59;4923148;29;20045;-71
2023/06/05 00:36:50;;;;;;;2.58;1.75;;;;;;;12.51;28.53;95884.66;4924427;29;20038;-71
2023/06/05 00:39:15;;;;;;;;;;;;;;;12.38;28.83;95888.75;4925309;29;20551;-71
2023/06/05 00:41:41;;;;;;;2.53;1.73;;;;;;;12.47;28.48;95888.66;4924889;29;19921;-71
2023/06/05 00:44:07;;;;;;;2.67;2.20;;;;;;;12.41;28.47;95891.06;4923564;29;20055;-71
2023/06/05 00:46:33;;;;;;;3.40;2.20;;;;;;;12.33;28.46;95893.81;4925051;28;20343;-71
2023/06/05 00:48:58;;;;;;;4.68;2.40;;;;;;;12.32;28.33;95884.16;4911192;29;20209;-71
2023/06/05 00:51:24;;;;;;;2.40;1.88;;;;;;;12.32;28.58;95894.84;4924653;29;20032;-71
2023/06/05 00:53:49;;;;;;;4.80;1.70;;;;;;;12.35;28.23;95883.81;4913511;29;20023;-71
2023/06/05 00:56:15;;;;;;;2.35;1.60;;;;;;;12.35;28.00;95888.31;4914442;29;20498;-71
2023/06/05 00:58:41;;;;;;;2.58;2.10;;;;;;;12.26;28.35;95896.41;4922757;29;20069;-71
2023/06/05 01:01:06;;;;;;;3.03;1.80;;;;;;;12.29;28.08;95889.84;4923699;29;20043;-71
2023/06/05 01:03:34;;;;;;;2.35;1.77;;;;;;;12.30;28.24;95890.69;4913421;29;20051;-71
2023/06/05 01:06:03;;;;;;;2.88;1.75;;;;;;;12.23;28.02;95887.91;4927416;29;20099;-71
2023/06/05 01:08:31;;;;;;;5.80;2.20;;;;;;;12.18;29.09;95887.63;4927160;29;20490;-71
2023/06/05 01:10:57;;;;;;;6.90;2.35;;;;;;;12.26;27.99;95884.88;4913317;29;20526;-71
2023/06/05 01:13:24;;;;;;;3.88;2.72;;;;;;;12.28;27.91;95882.88;4916619;29;20111;-71
2023/06/05 01:15:52;;;;;;;5.47;2.08;;;;;;;12.25;28.14;95884.06;4896906;29;20146;-71
2023/06/05 01:18:22;;;;;;;2.30;2.10;;;;;;;12.26;27.97;95882.22;4934153;29;20054;-71
2023/06/05 01:20:47;;;;;;;2.80;2.20;;;;;;;12.28;28.04;95874.88;4926785;29;20704;-71
2023/06/05 01:23:12;;;;;;;2.30;2.10;;;;;;;12.27;28.20;95881.19;4926876;29;20051;-71
2023/06/05 01:25:40;;;;;;;2.72;2.10;;;;;;;12.20;28.19;95874.94;4926322;29;20040;-71
2023/06/05 01:28:08;;;;;;;2.17;1.90;;;;;;;12.10;28.25;95876.03;4916249;29;20095;-71
2023/06/05 01:30:44;;;;;;;3.08;2.33;;;;;;;12.09;28.28;95874.38;4926585;29;20070;-71
2023/06/05 01:33:12;;;;;;;4.80;2.10;;;;;;;12.08;28.68;95872.72;4922561;29;20040;-71
2023/06/05 01:35:39;;;;;;;2.60;2.13;;;;;;;12.08;28.38;95871.88;4926519;29;20051;-71
2023/06/05 01:38:09;;;;;;;4.23;2.27;;;;;;;12.04;28.70;95876.72;4922307;29;20506;-71
2023/06/05 01:40:35;;;;;;;2.80;2.10;;;;;;;12.06;28.49;95871.19;4936051;29;20273;-71
2023/06/05 01:43:00;;;;;;;2.22;1.83;;;;;;;12.00;28.72;95870.09;4897256;29;20044;-71
2023/06/05 01:45:26;;;;;;;2.33;1.85;;;;;;;12.05;28.41;95864.19;4882932;29;20032;-71
2023/06/05 01:47:51;;;;;;;2.92;2.28;;;;;;;11.90;29.17;95871.16;4926107;29;20047;-71
2023/06/05 01:50:18;;;;;;;2.88;2.05;;;;;;;11.90;28.76;95868.50;4922915;29;20054;-71
2023/06/05 01:52:45;;;;;;;5.20;1.85;;;;;;;11.99;28.21;95869.25;4927346;29;20111;-71
2023/06/05 01:55:18;;;;;;;2.20;1.80;;;;;;;11.95;28.72;95865.28;4933939;29;20047;-71
2023/06/05 01:57:43;;;;;;;2.95;1.83;;;;;;;11.95;28.48;95865.28;4925316;29;20050;-71
2023/06/05 02:00:13;;;;;;;2.67;1.70;;;;;;;11.90;28.69;95862.34;4925186;29;20032;-71
2023/06/05 02:02:41;;;;;;;2.00;1.73;;;;;;;11.94;28.48;95857.47;4926102;29;20238;-71
2023/06/05 02:05:08;;;;;;;3.35;1.80;;;;;;;11.92;28.54;95852.31;4925762;29;20188;-71
2023/06/05 02:07:36;;;;;;;3.65;2.50;;;;;;;11.84;28.69;95853.22;4935024;29;20078;-71
2023/06/05 02:10:02;;;;;;;6.18;2.05;;;;;;;11.83;28.63;95856.88;4924587;29;20502;-71
2023/06/05 02:12:29;;;;;;;2.75;1.77;;;;;;;11.81;28.60;95853.59;4925423;29;20039;-71
2023/06/05 02:14:57;;;;;;;4.32;2.30;;;;;;;11.73;29.00;95848.31;4925095;29;20499;-71
2023/06/05 02:17:24;;;;;;;2.83;1.92;;;;;;;11.74;28.91;95849.97;4925576;29;20086;-71
2023/06/05 02:19:50;;;;;;;2.70;1.90;;;;;;;11.63;28.78;95838.72;4925330;29;20044;-71
2023/06/05 02:22:16;;;;;;;2.45;1.80;;;;;;;11.64;28.61;95839.56;4925043;29;21045;-71
2023/06/05 02:24:42;;;;;;;3.17;2.08;;;;;;;11.52;28.98;95847.13;4924846;29;20028;-71
2023/06/05 02:27:08;;;;;;;3.45;2.30;;;;;;;11.48;29.05;95848.50;4919541;29;20045;-71
2023/06/05 02:29:33;;;;;;;4.68;2.15;;;;;;;11.50;29.15;95841.16;4925518;29;20027;-71
2023/06/05 02:31:59;;;;;;;2.13;1.80;;;;;;;11.46;29.06;95847.88;4924984;29;20059;-71
2023/06/05 02:34:24;;;;;;;3.95;2.17;;;;;;;11.41;29.35;95850.22;4924520;29;20039;-71
2023/06/05 02:36:50;;;;;;;2.30;1.90;;;;;;;11.42;29.39;95842.03;4925615;29;20030;-71
2023/06/05 02:39:16;;;;;;;2.95;2.33;;;;;;;11.42;30.66;95842.03;4925030;29;20530;-71
2023/06/05 02:41:44;;;;;;;1.88;1.70;;;;;;;11.46;29.13;95845.19;4925123;29;20043;-71
2023/06/05 02:44:09;;;;;;;3.72;1.90;;;;;;;11.42;29.20;95849.22;4924184;29;20053;-71
2023/06/05 02:46:34;;;;;;;3.63;2.38;;;;;;;11.26;30.06;95841.16;4924777;29;20035;-71
2023/06/05 02:49:00;;;;;;;2.78;2.00;;;;;;;11.29;29.68;95839.97;4924340;29;20415;-71
2023/06/05 02:51:25;;;;;;;2.70;1.90;;;;;;;11.26;29.72;95837.69;4924859;29;20095;-71
2023/06/05 02:53:51;;;;;;;2.03;1.80;;;;;;;11.17;30.07;95828.91;4924349;29;20041;-71
2023/06/05 02:56:16;;;;;;;3.70;2.20;;;;;;;11.13;30.04;95835.59;4918742;29;20040;-71
2023/06/05 02:58:43;;;;;;;3.67;2.42;;;;;;;10.98;30.15;95830.16;4925182;29;20337;-71
2023/06/05 03:01:10;;;;;;;1.75;1.65;;;;;;;11.17;29.33;95828.06;4924571;29;20042;-71
2023/06/05 03:03:35;;;;;;;2.67;1.88;;;;;;;10.98;30.45;95830.16;4923629;29;20058;-71
2023/06/05 03:06:04;;;;;;;2.58;2.15;;;;;;;11.00;30.90;95834.31;4911704;29;20043;-71
2023/06/05 03:08:33;;;;;;;3.50;2.28;;;;;;;11.07;30.42;95838.91;4924846;29;20526;-71
2023/06/05 03:11:02;;;;;;;4.07;2.30;;;;;;;11.11;30.60;95832.25;4924457;29;20106;-71
2023/06/05 03:13:27;;;;;;;4.43;2.17;;;;;;;11.03;31.16;95835.78;4925062;29;20047;-70
2023/06/05 03:15:56;;;;;;;3.95;2.38;;;;;;;10.98;31.09;95830.16;4914247;29;20146;-70
2023/06/05 03:18:25;;;;;;;4.15;2.00;;;;;;;11.08;30.27;95838.72;4924445;29;20068;-71
2023/06/05 03:20:54;;;;;;;3.70;1.98;;;;;;;11.17;30.36;95833.38;4924711;29;20106;-71
2023/06/05 03:23:21;;;;;;;2.38;2.00;;;;;;;11.10;30.47;95831.44;4924085;29;20075;-71
2023/06/05 03:25:46;;;;;;;3.47;2.00;;;;;;;11.10;30.03;95826.13;4923800;29;20082;-71
2023/06/05 03:28:12;;;;;;;5.00;1.80;;;;;;;11.03;30.47;95826.94;4923752;29;20043;-71
2023/06/05 03:30:37;;;;;;;3.22;1.90;;;;;;;11.01;30.88;95827.13;4923528;29;20035;-71
2023/06/05 03:33:04;;;;;;;5.28;1.83;;;;;;;10.79;31.06;95821.59;4923863;29;20419;-71
2023/06/05 03:35:32;;;;;;;3.05;2.00;;;;;;;10.97;30.76;95825.81;4923814;29;20059;-71
2023/06/05 03:37:58;;;;;;;4.90;1.90;;;;;;;11.04;30.46;95825.94;4924382;29;20134;-71
2023/06/05 03:40:23;;;;;;;2.35;1.90;;;;;;;11.08;30.88;95822.75;4923510;29;20046;-71
2023/06/05 03:42:48;;;;;;;3.13;1.90;;;;;;;11.02;30.65;95820.81;4923906;29;20458;-71
2023/06/05 03:45:15;;;;;;;2.75;1.90;;;;;;;11.12;30.38;95823.28;4922677;29;20032;-72
2023/06/05 03:47:40;;;;;;;2.53;2.20;;;;;;;11.22;30.06;95826.53;4923502;29;20039;-71
2023/06/05 03:50:06;;;;;;;2.85;1.75;;;;;;;11.26;30.83;95821.69;4923936;29;20098;-71
2023/06/05 03:52:32;;;;;;;3.03;2.03;;;;;;;11.44;29.91;95823.22;4924164;29;20035;-71
2023/06/05 03:54:57;;;;;;;2.88;1.80;;;;;;;11.47;29.63;95822.84;4924245;29;20269;-71
2023/06/05 03:57:24;;;;;;;3.00;2.17;;;;;;;11.48;29.98;95821.84;4924424;29;20028;-71
2023/06/05 03:59:49;;;;;;;2.30;1.90;;;;;;;11.59;29.51;95823.28;4923483;29;20040;-70
2023/06/05 04:02:15;;;;;;;2.78;1.90;;;;;;;11.60;29.69;95825.72;4923299;29;20054;-70
2023/06/05 04:04:40;;;;;;;2.88;2.22;;;;;;;11.66;29.61;95829.53;4923589;29;20043;-70
2023/06/05 04:07:05;;;;;;;2.38;1.77;;;;;;;11.69;29.91;95831.84;4915678;29;20319;-71
2023/06/05 04:09:31;;;;;;;3.50;2.00;;;;;;;11.70;29.63;95830.00;4924060;29;20095;-71
2023/06/05 04:11:57;;;;;;;3.38;2.28;;;;;;;11.66;29.80;95826.84;4923425;29;20036;-71
2023/06/05 04:14:23;;;;;;;2.20;2.00;;;;;;;11.76;29.89;95831.94;4922734;29;20036;-71
2023/06/05 04:16:48;;;;;;;5.15;2.00;;;;;;;11.93;29.80;95829.16;4923655;29;20043;-70
2023/06/05 04:19:14;;;;;;;4.45;1.80;;;;;;;12.00;28.99;95822.06;4923462;29;20035;-70
2023/06/05 04:21:40;;;;;;;3.28;1.90;;;;;;;12.07;29.28;95817.66;4923629;29;20046;-71
2023/06/05 04:24:07;;;;;;;4.25;2.08;;;;;;;12.17;29.48;95829.94;4922958;29;20063;-71
2023/06/05 04:26:36;;;;;;;3.63;2.00;;;;;;;11.99;29.21;95826.56;4923409;29;20031;-71
2023/06/05 04:29:02;;;;;;;2.35;2.10;;;;;;;12.20;29.77;95827.72;4923008;29;20099;-71
2023/06/05 04:31:30;;;;;;;2.90;2.15;;;;;;;12.27;29.48;95833.16;4923128;29;20052;-71
2023/06/05 04:33:56;;;;;;;2.67;2.08;;;;;;;12.33;29.67;95829.75;4923452;29;20126;-71
2023/06/05 04:36:22;;;;;;;2.13;1.88;;;;;;;12.54;29.23;95829.00;4923218;29;20496;-71
2023/06/05 04:38:47;;;;;;;2.50;1.90;;;;;;;12.66;28.34;95832.06;4922288;29;20114;-71
2023/06/05 04:41:13;;;;;;;2.15;1.95;;;;;;;12.71;28.30;95836.00;4923657;29;20031;-71
2023/06/05 04:43:39;;;;;;;1.98;1.88;;;;;;;12.96;27.75;95825.81;4921938;29;20059;-71
2023/06/05 04:46:04;;;;;;;2.72;1.85;;;;;;;13.10;27.63;95831.34;4923354;29;20128;-71
2023/06/05 04:48:30;;;;;;;3.15;1.70;;;;;;;13.17;27.34;95830.41;4923013;29;20075;-71
2023/06/05 04:50:58;;;;;;;2.28;1.83;;;;;;;13.33;27.09;95825.84;4923014;29;20039;-72
2023/06/05 04:53:24;;;;;;;3.53;1.80;;;;;;;13.41;27.20;95831.06;4930732;29;20542;-72
2023/06/05 04:55:49;;;;;;;3.55;1.90;;;;;;;13.41;28.09;95825.69;4922890;29;20358;-72
2023/06/05 04:58:16;;;;;;;3.45;2.20;;;;;;;13.52;27.63;95828.88;4914641;29;20342;-71
2023/06/05 05:00:44;;;;;;;2.70;1.90;;;;;;;13.48;27.70;95835.63;4923507;29;20024;-71
2023/06/05 05:03:13;;;;;;;3.95;2.00;;;;;;;13.60;27.51;95834.09;4921532;29;20102;-71
2023/06/05 05:05:38;;;;;;;3.67;2.08;;;;;;;13.61;27.36;95834.91;4923230;29;20078;-71
2023/06/05 05:08:05;;;;;;;2.88;2.15;;;;;;;13.72;27.32;95825.53;4921699;29;20062;-72
2023/06/05 05:10:30;;;;;;;2.30;1.92;;;;;;;13.83;27.38;95830.38;4922662;29;20031;-71
2023/06/05 05:12:55;;;;;;;4.32;1.98;;;;;;;14.06;26.29;95827.50;4923509;29;20099;-72
2023/06/05 05:15:21;;;;;;;2.83;1.95;;;;;;;14.27;26.03;95830.28;4922588;29;20422;-71
2023/06/05 05:17:46;;;;;;;2.88;1.90;;;;;;;14.35;27.17;95830.16;4923031;29;20253;-73
2023/06/05 05:20:12;;;;;;;3.22;2.00;;;;;;;14.42;26.46;95832.88;4922911;29;20039;-72
2023/06/05 05:22:37;;;;;;;2.67;2.05;;;;;;;14.58;26.41;95826.34;4921852;29;20050;-73
2023/06/05 05:25:03;;;;;;;2.42;1.90;;;;;;;14.72;26.12;95827.22;4922918;29;20046;-73
2023/06/05 05:27:28;;;;;;;1.90;1.80;;;;;;;14.83;25.75;95833.94;4921681;29;20035;-72
2023/06/05 05:29:54;;;;;;;3.58;2.22;;;;;;;15.08;25.43;95828.03;4922561;29;20047;-73
2023/06/05 05:32:20;;;;;;;6.18;2.25;;;;;;;15.15;25.75;95833.41;4922276;29;20032;-72
2023/06/05 05:34:46;;;;;;;6.18;2.20;;;;;;;15.18;25.53;95831.16;4921728;29;20040;-72
2023/06/05 05:37:11;;;;;;;3.50;2.00;;;;;;;15.24;25.53;95827.66;4922811;29;20032;-72
2023/06/05 05:39:37;;;;;;;3.83;2.00;;;;;;;15.47;24.93;95842.56;4922581;29;20032;-73
2023/06/05 05:42:02;;;;;;;3.85;2.10;;;;;;;15.51;24.94;95836.78;4921947;29;20514;-72
2023/06/05 05:44:28;;;;;;;1.90;1.80;;;;;;;15.60;24.71;95836.41;4922052;29;20032;-72
2023/06/05 05:46:53;;;;;;;6.38;2.30;;;;;;;15.79;24.63;95835.81;4922257;29;20091;-72
2023/06/05 05:49:18;;;;;;;4.30;2.20;;;;;;;15.84;24.60;95831.47;4922464;29;20044;-73
2023/06/05 05:51:44;;;;;;;3.65;2.22;;;;;;;15.85;24.50;95830.44;4925456;29;20063;-72
2023/06/05 05:54:09;;;;;;;4.43;2.33;;;;;;;15.91;24.81;95841.38;4926316;29;20091;-72
2023/06/05 05:56:36;;;;;;;3.15;1.98;;;;;;;16.11;24.77;95846.72;4925781;29;20315;-72
2023/06/05 05:59:02;;;;;;;5.80;2.42;;;;;;;16.18;24.30;95841.38;4926158;29;20043;-72
2023/06/05 06:01:28;;;;;;;3.83;2.10;;;;;;;16.24;24.64;95846.72;4913942;29;20058;-72
2023/06/05 06:03:54;;;;;;;5.60;2.33;;;;;;;16.10;24.42;95853.97;4925535;29;20483;-72
2023/06/05 06:06:20;;;;;;;4.13;2.22;;;;;;;16.26;24.78;95851.91;4925113;29;20047;-72
2023/06/05 06:08:45;;;;;;;5.30;2.33;;;;;;;16.57;24.84;95855.78;4924972;29;20044;-72
2023/06/05 06:11:10;;;;;;;5.43;2.50;;;;;;;16.32;24.66;95858.28;4925222;29;20410;-72
2023/06/05 06:13:36;;;;;;;5.57;2.40;;;;;;;16.59;24.83;95860.97;4925724;29;20035;-72
2023/06/05 06:16:04;;;;;;;3.83;2.03;;;;;;;16.74;24.55;95852.66;4924520;29;20569;-73
2023/06/05 06:18:30;;;;;;;3.72;2.10;;;;;;;16.67;24.24;95857.22;4925014;29;20031;-72
2023/06/05 06:20:55;;;;;;;3.88;2.47;;;;;;;16.64;23.55;95856.63;4924191;29;20046;-73
2023/06/05 06:23:21;;;;;;;3.15;2.38;;;;;;;16.83;23.81;95853.25;4924543;29;20129;-73
2023/06/05 06:25:46;;;;;;;3.88;2.50;;;;;;;17.01;23.99;95850.69;4923430;29;20035;-73
2023/06/05 06:28:12;;;;;;;3.67;2.10;;;;;;;17.03;23.70;95851.28;4926275;29;20042;-73
2023/06/05 06:30:37;;;;;;;3.03;2.05;;;;;;;17.29;23.21;95856.78;4924193;29;20144;-73
2023/06/05 06:33:04;;;;;;;4.55;2.40;;;;;;;17.05;25.00;95855.63;4925205;29;20399;-73
2023/06/05 06:35:31;;;;;;;2.83;2.20;;;;;;;17.26;23.80;95854.50;4924395;29;20040;-73
2023/06/05 06:37:57;;;;;;;;;;;;;;;17.59;22.72;95849.97;4925518;29;20035;-73
2023/06/05 06:40:22;;;;;;;3.28;2.03;;;;;;;17.61;22.54;95855.97;4923903;29;20353;-73
2023/06/05 06:42:48;;;;;;;3.75;2.40;;;;;;;17.59;24.63;95855.38;4925047;29;20035;-73
2023/06/05 06:45:14;;;;;;;4.25;3.13;;;;;;;17.47;24.55;95857.94;4923599;29;20118;-73
2023/06/05 06:47:40;;;;;;;4.28;3.20;;;;;;;17.63;23.95;95859.25;4922690;29;20067;-73
2023/06/05 06:50:06;;;;;;;4.60;3.28;;;;;;;17.83;22.91;95861.00;4922594;29;20039;-73
2023/06/05 06:52:31;;;;;;;2.85;2.22;;;;;;;17.84;23.76;95865.34;4923864;29;20035;-73
2023/06/05 06:54:57;;;;;;;6.15;3.17;;;;;;;17.88;23.87;95866.59;4924581;29;20428;-73
2023/06/05 06:57:22;;;;;;;6.40;4.53;;;;;;;17.90;24.16;95869.88;4924567;29;20050;-73
2023/06/05 06:59:48;;;;;;;4.25;3.38;;;;;;;18.07;22.99;95867.47;4924441;29;20514;-73
2023/06/05 07:02:15;;;;;;;5.50;3.97;;;;;;;18.16;23.31;95862.63;4923356;29;20035;-73
2023/06/05 07:04:41;;;;;;;7.20;3.55;;;;;;;18.26;23.35;95859.44;4924527;29;20060;-73
2023/06/05 07:07:14;;;;;;;8.85;4.82;;;;;;;18.50;23.84;95857.75;4924287;29;20083;-74
2023/06/05 07:09:43;;;;;;;6.68;3.95;;;;;;;18.51;23.57;95862.09;4921582;29;20044;-74
2023/06/05 07:12:09;;;;;;;5.13;3.90;;;;;;;18.72;22.88;95868.13;4923898;29;20091;-74
2023/06/05 07:14:34;;;;;;;7.35;4.60;;;;;;;18.73;23.11;95864.38;4924201;29;20031;-74
2023/06/05 07:17:00;;;;;;;5.47;3.40;;;;;;;18.93;23.52;95861.44;4923481;29;20055;-74
2023/06/05 07:19:27;;;;;;;9.88;6.03;;;;;;;18.91;23.38;95868.13;4922666;29;20044;-75
2023/06/05 07:21:53;;;;;;;6.18;3.42;;;;;;;19.04;23.60;95859.06;4923740;29;20110;-74
2023/06/05 07:24:20;;;;;;;8.57;6.22;;;;;;;19.10;22.49;95868.91;4923302;29;20086;-74
2023/06/05 07:26:45;;;;;;;10.98;7.75;;;;;;;19.30;22.87;95865.16;4924064;29;20031;-74
2023/06/05 07:29:11;;;;;;;11.77;9.10;;;;;;;19.26;22.79;95869.34;4924452;29;20040;-74
2023/06/05 07:31:36;;;;;;;10.50;7.47;;;;;;;19.50;22.13;95873.00;4923447;29;20040;-74
2023/06/05 07:34:02;;;;;;;5.68;2.97;;;;;;;19.60;21.09;95864.34;4923259;29;20083;-74
2023/06/05 07:36:28;;;;;;;5.70;4.07;;;;;;;19.66;21.78;95868.00;4923027;29;20714;-74
2023/06/05 07:38:54;;;;;;;4.30;3.08;;;;;;;19.74;21.73;95862.28;4923896;29;20035;-74
2023/06/05 07:41:20;;;;;;;12.02;6.75;;;;;;;19.81;22.44;95865.69;4923314;29;20087;-75
2023/06/05 07:43:46;;;;;;;7.22;5.13;;;;;;;20.09;21.53;95869.66;4912453;29;20442;-74
2023/06/05 07:46:11;;;;;;;4.90;3.03;;;;;;;20.26;21.41;95866.25;4923753;29;20032;-75
2023/06/05 07:48:37;;;;;;;7.38;3.53;;;;;;;20.36;21.91;95869.19;4934132;29;20050;-74
2023/06/05 07:51:02;;;;;;;12.93;7.45;;;;;;;20.39;21.85;95881.41;4922485;29;20040;-75
2023/06/05 07:53:28;;;;;;;7.28;5.68;;;;;;;20.40;21.55;95879.53;4924099;29;20035;-75
2023/06/05 07:55:53;;;;;;;8.68;4.50;;;;;;;20.77;21.14;95878.50;4924096;29;20040;-74
2023/06/05 07:58:19;;;;;;;5.13;3.58;;;;;;;20.80;20.93;95876.13;4908882;29;20032;-74
2023/06/05 08:00:47;;;;;;;8.43;5.00;;;;;;;20.80;20.20;95870.72;4922921;29;20032;-75
2023/06/05 08:03:19;;;;;;;7.60;4.45;;;;;;;20.96;20.50;95877.28;4923753;29;20073;-75
2023/06/05 08:05:46;;;;;;;8.50;5.50;;;;;;;20.86;21.43;95877.88;4921362;29;20577;-75
2023/06/05 08:08:11;;;;;;;10.47;7.47;;;;;;;21.02;21.03;95880.09;4922748;29;20426;-75
2023/06/05 08:10:36;;;;;;;6.65;4.85;;;;;;;21.41;20.74;95868.69;4922521;29;20040;-75
2023/06/05 08:13:02;;;;;;;8.02;6.18;;;;;;;21.50;20.70;95878.06;4923265;29;20360;-75
2023/06/05 08:15:28;;;;;;;8.27;4.50;;;;;;;21.56;20.06;95871.69;4922632;29;20039;-74
2023/06/05 08:17:53;;;;;;;8.82;5.95;;;;;;;21.71;20.53;95867.59;4923294;29;20055;-75
2023/06/05 08:20:19;;;;;;;5.70;3.75;;;;;;;21.77;19.68;95869.34;4921942;29;20048;-75
2023/06/05 08:22:44;;;;;;;9.85;6.82;;;;;;;21.73;20.07;95871.72;4923448;29;20579;-75
2023/06/05 08:25:10;;;;;;;8.73;5.20;;;;;;;21.88;20.31;95865.75;4916667;29;20034;-74
2023/06/05 08:27:35;;;;;;;9.07;6.20;;;;;;;22.07;19.98;95862.84;4922660;29;20341;-75
2023/06/05 08:30:01;;;;;;;13.45;3.88;;;;;;;22.27;19.14;95864.22;4923698;29;20024;-75
2023/06/05 08:32:27;;;;;;;7.93;4.95;;;;;;;22.30;19.30;95860.19;4923404;29;20043;-75
2023/06/05 08:34:52;;;;;;;5.28;3.55;;;;;;;22.35;19.04;95858.38;4922650;29;20039;-75
2023/06/05 08:37:17;;;;;;;8.35;6.10;;;;;;;22.30;19.13;95858.31;4923220;29;20043;-75
2023/06/05 08:39:43;;;;;;;6.82;4.47;;;;;;;22.33;19.32;95857.78;4922449;29;20411;-75
2023/06/05 08:42:10;;;;;;;4.53;2.70;;;;;;;22.73;19.03;95860.53;4913263;29;20070;-75
2023/06/05 08:44:36;;;;;;;5.60;4.40;;;;;;;22.88;19.05;95865.38;4922008;29;20050;-75
2023/06/05 08:47:02;;;;;;;5.65;3.88;;;;;;;22.96;18.75;95862.22;4922923;29;20508;-74
2023/06/05 08:49:36;;;;;;;9.77;6.63;;;;;;;22.55;19.35;95865.19;4921900;29;20042;-74
2023/06/05 08:52:03;;;;;;;6.65;2.88;;;;;;;23.28;18.27;95869.66;4922819;29;20065;-75
2023/06/05 08:54:31;;;;;;;;;;;;;;;23.37;18.50;95864.59;4908036;29;20388;-74
2023/06/05 08:56:56;;;;;;;7.13;3.50;;;;;;;23.47;18.54;95855.75;4923327;29;19918;-75
2023/06/05 08:59:24;;;;;;;7.65;5.07;;;;;;;23.13;19.27;95870.28;4922881;29;20402;-75
2023/06/05 09:01:50;;;;;;;6.78;4.13;;;;;;;22.97;18.42;95865.75;4921804;29;20039;-74
2023/06/05 09:04:15;;;;;;;5.47;2.63;;;;;;;23.55;17.62;95866.16;4920908;29;20052;-75
2023/06/05 09:06:46;;;;;;;6.07;3.22;;;;;;;23.92;17.99;95867.34;4913837;29;20039;-74
2023/06/05 09:09:12;;;;;;;5.18;3.35;;;;;;;23.91;16.96;95865.72;4919266;29;20041;-75
2023/06/05 09:11:38;;;;;;;6.97;3.85;;;;;;;23.85;17.50;95858.56;4905339;29;20087;-74
2023/06/05 09:14:03;;;;;;;7.63;5.28;;;;;;;23.75;17.67;95861.19;4922113;29;20581;-74
2023/06/05 09:16:45;;;;;;;6.95;3.10;;;;;;;23.81;17.48;95866.44;4922224;29;20059;-74
2023/06/05 09:19:11;;;;;;;8.10;5.50;;;;;;;23.86;17.95;95862.13;4920852;29;20288;-74
2023/06/05 09:21:36;;;;;;;11.77;6.20;;;;;;;23.24;15.88;95860.38;4916461;29;20397;-74
2023/06/05 09:24:18;;;;;;;11.90;9.70;;;;;;;23.31;17.69;95862.91;4922672;29;20044;-74
2023/06/05 09:26:47;;;;;;;5.70;2.40;;;;;;;23.69;16.45;95863.00;4925006;29;20098;-74
2023/06/05 09:29:13;;;;;;;8.45;6.70;;;;;;;23.81;17.39;95858.28;4927160;29;20090;-75
2023/06/05 09:31:42;;;;;;;10.70;7.47;;;;;;;23.75;16.29;95855.75;4925820;29;20047;-74
2023/06/05 09:34:07;;;;;;;11.43;8.48;;;;;;;23.93;16.98;95865.44;4917669;29;20039;-75
2023/06/05 09:36:34;;;;;;;11.13;6.97;;;;;;;23.97;16.28;95860.31;4919668;29;20391;-75
2023/06/05 09:39:16;;;;;;;9.38;6.10;;;;;;;24.00;17.15;95859.78;4931800;29;20373;-74
2023/06/05 09:41:46;;;;;;;8.52;5.97;;;;;;;23.73;17.44;95857.91;4926528;29;20035;-75
2023/06/05 09:44:11;;;;;;;8.10;5.72;;;;;;;23.62;16.33;95854.28;4925683;29;20418;-74
2023/06/05 09:46:51;;;;;;;6.63;4.88;;;;;;;24.12;16.66;95863.16;4925287;29;20055;-74
2023/06/05 09:49:16;;;;;;;5.43;3.58;;;;;;;24.57;15.39;95857.47;4924695;29;20402;-74
2023/06/05 09:51:45;;;;;;;4.10;2.80;;;;;;;24.79;14.89;95856.53;4925838;29;20035;-74
2023/06/05 09:54:11;;;;;;;8.98;6.25;;;;;;;24.87;15.56;95861.47;4926355;29;20032;-75
2023/06/05 09:56:37;;;;;;;3.87;3.13;;;;;;;25.14;15.22;95863.25;4926341;29;20036;-74
2023/06/05 09:59:02;;;;;;;7.72;4.53;;;;;;;25.05;15.88;95856.69;4924857;29;20035;-74
2023/06/05 10:01:28;;;;;;;12.43;8.50;;;;;;;25.24;15.87;95854.28;4898065;29;20027;-74
2023/06/05 10:03:58;;;;;;;12.70;8.90;;;;;;;25.24;15.36;95857.00;4924312;29;20036;-74
2023/06/05 10:06:24;;;;;;;5.60;3.33;;;;;;;25.75;15.47;95851.97;4924049;29;20040;-74
2023/06/05 10:08:52;;;;;;;10.50;7.53;;;;;;;25.91;15.24;95858.25;4927580;29;20028;-74
2023/06/05 10:11:18;;;;;;;7.20;5.18;;;;;;;25.96;14.79;95856.34;4913882;29;20513;-74
2023/06/05 10:13:44;;;;;;;5.93;4.38;;;;;;;26.14;14.57;95850.66;4912130;29;20301;-74
2023/06/05 10:16:09;;;;;;;9.20;7.27;;;;;;;26.12;15.16;95850.91;4893869;29;20056;-74
2023/06/05 10:18:35;;;;;;;12.30;7.97;;;;;;;26.15;13.61;95855.84;4930042;29;20102;-74
2023/06/05 10:21:00;;;;;;;7.97;5.90;;;;;;;26.30;14.63;95848.72;4922777;29;20487;-74
2023/06/05 10:23:25;;;;;;;6.77;5.40;;;;;;;26.48;15.34;95848.13;4909993;29;20056;-74
2023/06/05 10:25:51;;;;;;;4.60;3.57;;;;;;;26.83;14.01;95858.47;4912185;29;20178;-74
2023/06/05 10:28:32;;;;;;;7.00;3.70;;;;;;;27.15;13.67;95857.25;4899860;29;20486;-75
2023/06/05 10:31:17;;;;;;;6.28;3.78;;;;;;;27.20;13.18;95856.44;4931603;29;20518;-74
2023/06/05 10:33:52;;;;;;;6.03;2.83;;;;;;;27.38;12.81;95852.22;4907854;29;20034;-74
2023/06/05 10:36:41;;;;;;;7.63;5.28;;;;;;;27.11;14.75;95856.19;4905638;29;20062;-74
2023/06/05 10:39:10;;;;;;;2.15;1.95;;;;;;;26.92;12.66;95848.59;4924162;29;20347;-74
2023/06/05 10:41:35;;;;;;;6.07;4.40;;;;;;;26.98;14.51;95847.47;4915008;29;20137;-74
2023/06/05 10:44:00;;;;;;;2.60;2.37;;;;;;;27.44;14.00;95848.38;4909081;29;20674;-74
2023/06/05 10:46:26;;;;;;;6.20;2.73;;;;;;;27.25;13.80;95842.72;4931034;29;20028;-74
2023/06/05 10:49:17;;;;;;;4.60;2.60;;;;;;;27.45;13.02;95844.53;4925451;29;20071;-74
2023/06/05 10:51:43;;;;;;;7.32;4.30;;;;;;;27.18;13.76;95837.59;4924879;29;20031;-74
2023/06/05 10:54:15;;;;;;;6.15;4.90;;;;;;;27.11;14.39;95843.34;4924045;29;20463;-75
2023/06/05 10:56:56;;;;;;;4.93;2.63;;;;;;;27.38;13.44;95844.88;4924587;29;20044;-74
2023/06/05 10:59:23;;;;;;;5.00;2.78;;;;;;;27.70;14.02;95848.22;4923205;29;20042;-74
2023/06/05 11:02:16;;;;;;;7.22;3.30;;;;;;;27.62;12.73;95846.06;4924241;29;20051;-74
2023/06/05 11:04:46;;;;;;;5.90;4.20;;;;;;;27.60;13.67;95851.03;4922860;29;20051;-74
2023/06/05 11:07:15;;;;;;;7.25;4.25;;;;;;;27.67;13.07;95854.28;4924891;29;20043;-74
2023/06/05 11:10:03;;;;;;;2.53;2.33;;;;;;;28.36;12.18;95847.19;4924327;29;20324;-74
2023/06/05 11:12:35;;;;;;;2.95;2.25;;;;;;;28.26;11.94;95837.97;4923605;29;20040;-74
2023/06/05 11:15:01;;;;;;;4.32;2.97;;;;;;;28.01;13.27;95839.00;4923183;29;20410;-74
2023/06/05 11:17:30;;;;;;;;;;;;;;;28.01;12.46;95844.47;4925121;29;20545;-74
2023/06/05 11:19:56;;;;;;;5.78;3.35;;;;;;;27.94;12.97;95842.03;4924501;29;20373;-74
2023/06/05 11:22:22;;;;;;;4.18;3.00;;;;;;;28.34;13.49;95833.78;4924442;29;20384;-72
2023/06/05 11:25:13;;;;;;;4.20;1.87;;;;;;;28.92;12.53;95837.56;4897696;29;20293;-72
2023/06/05 11:28:12;;;;;;;3.85;2.47;;;;;;;28.82;12.69;95831.41;4922951;29;20051;-72
2023/06/05 11:30:39;;;;;;;6.25;2.83;;;;;;;28.09;12.91;95824.69;4924963;29;20071;-72
2023/06/05 11:33:09;;;;;;;6.65;2.80;;;;;;;27.95;12.98;95826.44;4923468;29;20032;-72